International Virtual Aviation Organisation

Russian Federation and Kazakhstan MCD

 

Карточка аэропорта UACP

Внимание!
Информация на этой странице в стадии наполнения.
Если вы не увидели какой-то информации, или заметили неточность - пожалуйста сообщите нам!
Спасибо!
Команда RU-STAFF
Название аэропортаПетропавловск
Название аэропорта (англ.)Petropavlovsk
Превышение459 ft. (139.9 m.)
Координаты54°46.464', 69°11.1'
Высота перехода10000
Эшелон переходаby ATC
Коды ответчика7260-7263
Зона ОрВДНур-Султан РПИ (UACN)
Данные METARUACP 130930Z 26003MPS CAVOK M11/M13 Q1019 R23/4/1045 NOSIG RMK QFE751/1002
Проноз погоды (TAF)NODATA
NOTAMshow/hide NOTAM
AWOS   TABLE

Информация о ВПП

ВПП Длина ВПП (м.) Покрытие Курс ВПП Частота ILS
052802Асфальтобетон53 
232802Асфальтобетон233108.3

Диспетчерские позиции

Позывной Наименование органа УВД Частота
UACP_APPПетропавловск Вышка123.7



Спутниковое изображение